Time;durP1;ratioP1;P1;durP2;ratioP2;P2;SDS_P1;SDS_P2;PMS_P1;PMS_P2;Temp;Humidity;BMP_temperature;BMP_pressure;BME280_temperature;BME280_humidity;BME280_pressure;Samples;Min_cycle;Max_cycle;Signal;HPM_P1;HPM_P2
2023/11/28 00:00:26;;;;;;;0.37;0.30;;;;;;;3.18;93.77;93216.66;4954318;28;20286;-78
2023/11/28 00:02:51;;;;;;;0.30;0.30;;;;;;;2.92;96.29;93210.84;4973132;28;20205;-78
2023/11/28 00:05:16;;;;;;;0.20;0.20;;;;;;;3.03;95.33;93205.41;4940998;28;20225;-77
2023/11/28 00:07:42;;;;;;;0.20;0.20;;;;;;;3.25;94.52;93201.41;4934487;29;20286;-78
2023/11/28 00:10:08;;;;;;;0.30;0.30;;;;;;;3.05;95.58;93190.66;4955018;28;20204;-78
2023/11/28 00:12:34;;;;;;;0.30;0.30;;;;;;;3.34;94.74;93203.00;4938791;29;20220;-78
2023/11/28 00:14:59;;;;;;;0.73;0.30;;;;;;;3.41;94.55;93191.13;4940424;28;20193;-78
2023/11/28 00:17:25;;;;;;;0.40;0.40;;;;;;;3.39;94.54;93188.75;4956906;28;20181;-78
2023/11/28 00:19:50;;;;;;;0.30;0.30;;;;;;;3.26;95.30;93192.75;4939175;29;20192;-78
2023/11/28 00:22:15;;;;;;;0.83;0.20;;;;;;;3.36;94.52;93188.28;4939707;28;20213;-79
2023/11/28 00:24:41;;;;;;;0.30;0.30;;;;;;;3.33;94.76;93183.44;4938720;28;20184;-78
2023/11/28 00:27:06;;;;;;;0.47;0.30;;;;;;;3.13;96.15;93181.22;4940101;29;20264;-78
2023/11/28 00:29:31;;;;;;;1.50;0.40;;;;;;;3.58;93.67;93179.09;4955069;28;20548;-79
2023/11/28 00:31:58;;;;;;;0.30;0.30;;;;;;;3.35;94.64;93166.91;4938695;28;20252;-78
2023/11/28 00:34:24;;;;;;;0.33;0.33;;;;;;;3.36;95.09;93175.44;4959191;28;20212;-80
2023/11/28 00:36:49;;;;;;;1.53;0.30;;;;;;;3.24;95.56;93180.09;4939874;29;20263;-79
2023/11/28 00:39:15;;;;;;;0.20;0.20;;;;;;;3.46;95.66;93178.63;4938455;28;20214;-78
2023/11/28 00:41:40;;;;;;;0.30;0.30;;;;;;;3.56;94.14;93173.34;4953478;28;20197;-79
2023/11/28 00:44:06;;;;;;;0.57;0.30;;;;;;;3.50;94.49;93169.63;4957047;28;20237;-78
2023/11/28 00:46:31;;;;;;;0.30;0.30;;;;;;;3.54;95.30;93176.06;4941734;29;21046;-79
2023/11/28 00:48:56;;;;;;;0.30;0.30;;;;;;;3.57;94.53;93172.38;4938662;28;20233;-79
2023/11/28 00:51:22;;;;;;;0.20;0.20;;;;;;;3.59;95.10;93166.09;4954568;28;20189;-78
2023/11/28 00:53:47;;;;;;;0.60;0.40;;;;;;;3.50;95.66;93169.63;4954895;28;20201;-79
2023/11/28 00:56:19;;;;;;;0.37;0.37;;;;;;;3.64;96.10;93166.41;4972077;28;20659;-79
2023/11/28 00:58:46;;;;;;;0.77;0.40;;;;;;;3.53;97.11;93163.38;4938315;29;20730;-79
2023/11/28 01:01:12;;;;;;;0.30;0.30;;;;;;;3.64;95.99;93161.28;4969836;28;20201;-78
2023/11/28 01:03:38;;;;;;;0.50;0.40;;;;;;;3.76;96.45;93160.94;4969981;28;20236;-78
2023/11/28 01:06:05;;;;;;;0.30;0.27;;;;;;;3.85;95.40;93153.03;4938209;28;20267;-77
2023/11/28 01:08:30;;;;;;;0.23;0.23;;;;;;;3.66;95.50;93156.78;4935545;29;20220;-79
2023/11/28 01:10:55;;;;;;;1.20;0.30;;;;;;;3.64;97.59;93156.16;4953523;28;20302;-78
2023/11/28 01:13:21;;;;;;;0.30;0.30;;;;;;;3.55;98.55;93146.88;4969752;28;20218;-79
2023/11/28 01:15:46;;;;;;;0.27;0.27;;;;;;;3.71;98.42;93146.03;4938705;28;20260;-78
2023/11/28 01:18:12;;;;;;;0.40;0.40;;;;;;;3.64;98.82;93143.31;4957853;28;20208;-79
2023/11/28 01:20:37;;;;;;;0.30;0.30;;;;;;;3.65;99.22;93139.78;4970578;28;20689;-79
2023/11/28 01:23:03;;;;;;;0.30;0.30;;;;;;;3.81;98.09;93143.28;4953359;28;20923;-78
2023/11/28 01:25:29;;;;;;;0.30;0.20;;;;;;;3.77;97.79;93142.78;4969362;28;20185;-78
2023/11/28 01:27:54;;;;;;;0.20;0.20;;;;;;;3.67;98.15;93148.13;4969821;28;20531;-78
2023/11/28 01:30:20;;;;;;;0.30;0.30;;;;;;;3.87;97.78;93140.03;4956839;28;20173;-78
2023/11/28 01:32:45;;;;;;;0.30;0.30;;;;;;;3.74;98.43;93129.50;4953343;28;20217;-78
2023/11/28 01:35:10;;;;;;;0.30;0.30;;;;;;;3.93;96.97;93132.47;4937720;28;20199;-79
2023/11/28 01:37:36;;;;;;;0.30;0.30;;;;;;;3.94;96.30;93123.78;4968380;28;20586;-80
2023/11/28 01:40:02;;;;;;;0.30;0.30;;;;;;;4.10;96.24;93134.97;4953687;28;20193;-80
2023/11/28 01:42:28;;;;;;;0.30;0.30;;;;;;;4.05;96.71;93124.41;4953648;28;20255;-80
2023/11/28 01:44:53;;;;;;;0.40;0.40;;;;;;;4.06;96.13;93134.50;4937341;29;20284;-80
2023/11/28 01:47:19;;;;;;;0.40;0.40;;;;;;;4.06;96.03;93124.22;4920588;28;20209;-80
2023/11/28 01:49:46;;;;;;;0.30;0.30;;;;;;;4.14;95.64;93131.91;4972337;28;20239;-79
2023/11/28 01:52:11;;;;;;;0.20;0.20;;;;;;;4.21;95.40;93126.91;4954208;28;20621;-80
2023/11/28 01:54:38;;;;;;;0.57;0.57;;;;;;;3.92;96.44;93127.50;4969068;28;20189;-79
2023/11/28 01:57:03;;;;;;;0.43;0.43;;;;;;;4.09;96.26;93134.19;4925059;28;20682;-79
2023/11/28 01:59:31;;;;;;;0.40;0.40;;;;;;;4.00;96.65;93124.91;4940259;28;20202;-79
2023/11/28 02:01:57;;;;;;;1.03;0.70;;;;;;;3.92;96.98;93132.63;4954553;28;20227;-79
2023/11/28 02:04:23;;;;;;;0.77;0.43;;;;;;;4.12;96.14;93136.41;4938443;29;20185;-80
2023/11/28 02:06:48;;;;;;;0.97;0.50;;;;;;;3.95;95.73;93132.31;4925317;29;20216;-79
2023/11/28 02:09:14;;;;;;;0.50;0.50;;;;;;;3.93;95.55;93129.91;4954805;28;20192;-79
2023/11/28 02:11:39;;;;;;;0.50;0.50;;;;;;;4.09;95.10;93123.91;4940693;29;20209;-80
2023/11/28 02:14:04;;;;;;;0.30;0.30;;;;;;;4.06;95.30;93124.22;4968990;28;20264;-79
2023/11/28 02:16:30;;;;;;;0.40;0.40;;;;;;;4.17;94.56;93117.94;4961528;28;20178;-80
2023/11/28 02:18:55;;;;;;;0.47;0.47;;;;;;;4.05;95.52;93122.63;4952670;28;20200;-80
2023/11/28 02:21:20;;;;;;;1.70;0.60;;;;;;;4.04;95.87;93120.22;4955048;28;20180;-79
2023/11/28 02:23:46;;;;;;;0.40;0.40;;;;;;;3.96;96.92;93123.63;4952833;28;20216;-79
2023/11/28 02:26:29;;;;;;;0.60;0.40;;;;;;;4.14;96.43;93121.63;4935860;28;20600;-79
2023/11/28 02:28:56;;;;;;;1.27;0.40;;;;;;;3.98;96.94;93114.00;4951941;28;20185;-78
2023/11/28 02:31:22;;;;;;;0.40;0.40;;;;;;;3.97;96.90;93120.09;4956506;28;20269;-78
2023/11/28 02:33:48;;;;;;;0.37;0.30;;;;;;;3.96;97.31;93115.91;4923348;29;20289;-78
2023/11/28 02:36:16;;;;;;;0.40;0.40;;;;;;;4.07;96.51;93115.56;4955984;28;20276;-78
2023/11/28 02:38:41;;;;;;;0.50;0.50;;;;;;;3.96;97.16;93113.34;4951137;29;20185;-78
2023/11/28 02:41:07;;;;;;;0.40;0.40;;;;;;;4.01;96.71;93116.25;4968164;28;20300;-79
2023/11/28 02:43:33;;;;;;;0.40;0.40;;;;;;;3.91;97.38;93113.06;4939649;28;20200;-78
2023/11/28 02:45:58;;;;;;;1.60;0.43;;;;;;;3.82;97.67;93102.03;4951561;28;20252;-79
2023/11/28 02:48:23;;;;;;;0.43;0.30;;;;;;;4.08;96.86;93106.91;4951551;28;20252;-78
2023/11/28 02:50:49;;;;;;;1.00;0.50;;;;;;;4.11;96.04;93111.69;4946697;29;20194;-79
2023/11/28 02:53:17;;;;;;;0.50;0.40;;;;;;;4.09;96.21;93103.34;4952406;28;20248;-79
2023/11/28 02:55:42;;;;;;;0.23;0.23;;;;;;;3.90;96.72;93106.34;4936633;29;20188;-78
2023/11/28 02:58:08;;;;;;;0.40;0.40;;;;;;;4.02;96.16;93107.56;4951554;28;20204;-79
2023/11/28 03:00:33;;;;;;;0.50;0.40;;;;;;;3.74;97.23;93098.69;4952327;28;20189;-80
2023/11/28 03:02:58;;;;;;;0.40;0.40;;;;;;;4.02;95.65;93112.69;4937010;28;20292;-78
2023/11/28 03:05:24;;;;;;;0.50;0.30;;;;;;;3.93;95.17;93098.28;4955539;28;20194;-78
2023/11/28 03:07:49;;;;;;;0.50;0.50;;;;;;;3.97;95.51;93091.84;4967681;28;20597;-79
2023/11/28 03:10:14;;;;;;;0.30;0.30;;;;;;;3.97;95.00;93102.13;4952071;28;20207;-79
2023/11/28 03:12:40;;;;;;;0.20;0.20;;;;;;;3.79;95.50;93091.28;4952069;28;20208;-79
2023/11/28 03:15:06;;;;;;;0.40;0.40;;;;;;;3.57;95.26;93087.69;4937029;28;20686;-79
2023/11/28 03:17:31;;;;;;;0.40;0.40;;;;;;;3.80;95.28;93082.59;4936440;29;20192;-79
2023/11/28 03:19:56;;;;;;;0.40;0.40;;;;;;;3.78;95.42;93089.69;4949739;28;20200;-77
2023/11/28 03:22:22;;;;;;;0.30;0.30;;;;;;;4.00;93.96;93088.97;4935684;29;20204;-79
2023/11/28 03:24:47;;;;;;;0.30;0.30;;;;;;;4.04;94.01;93085.06;4956450;28;20182;-79
2023/11/28 03:27:13;;;;;;;0.30;0.30;;;;;;;4.05;93.87;93084.09;4953151;28;20205;-79
2023/11/28 03:29:39;;;;;;;0.50;0.40;;;;;;;3.76;94.84;93077.00;4968156;28;20189;-79
2023/11/28 03:32:04;;;;;;;1.50;0.30;;;;;;;3.90;94.64;93085.81;4970072;28;20725;-79
2023/11/28 03:34:30;;;;;;;0.40;0.40;;;;;;;3.87;94.64;93074.06;4952181;28;20550;-78
2023/11/28 03:36:57;;;;;;;0.33;0.33;;;;;;;3.84;94.88;93083.88;4957803;28;20182;-79
2023/11/28 03:39:22;;;;;;;0.33;0.33;;;;;;;3.80;95.19;93072.34;4958097;28;20664;-79
2023/11/28 03:41:48;;;;;;;0.83;0.30;;;;;;;3.79;95.35;93075.88;4970418;28;20331;-78
2023/11/28 03:44:14;;;;;;;0.40;0.40;;;;;;;3.89;95.37;93076.50;4955179;28;20189;-79
2023/11/28 03:46:39;;;;;;;0.50;0.40;;;;;;;4.00;95.22;93080.47;4973201;28;20237;-79
2023/11/28 03:49:04;;;;;;;0.20;0.20;;;;;;;4.00;95.27;93078.69;4940034;28;20205;-79
2023/11/28 03:51:30;;;;;;;0.30;0.30;;;;;;;4.04;95.47;93081.72;4971796;28;20185;-79
2023/11/28 03:53:55;;;;;;;0.20;0.20;;;;;;;3.94;95.99;93085.28;4939413;28;20209;-79
2023/11/28 03:56:21;;;;;;;0.47;0.30;;;;;;;4.03;96.15;93080.09;4970897;28;20228;-78
2023/11/28 03:58:47;;;;;;;0.47;0.30;;;;;;;4.13;95.78;93083.25;4960712;28;20195;-80
2023/11/28 04:01:13;;;;;;;0.73;0.53;;;;;;;3.90;98.35;93084.03;4951266;28;20204;-80
2023/11/28 04:03:38;;;;;;;0.40;0.30;;;;;;;3.95;98.20;93086.06;4955506;28;20227;-79
2023/11/28 04:06:04;;;;;;;1.60;0.40;;;;;;;4.10;97.60;93092.13;4969423;28;20206;-78
2023/11/28 04:08:29;;;;;;;0.30;0.30;;;;;;;4.25;96.56;93102.47;4968685;28;20200;-79
2023/11/28 04:10:54;;;;;;;0.30;0.30;;;;;;;4.27;96.97;93097.97;4941554;29;20685;-79
2023/11/28 04:13:20;;;;;;;0.33;0.33;;;;;;;4.34;97.27;93101.47;4925470;29;20705;-79
2023/11/28 04:15:45;;;;;;;0.43;0.40;;;;;;;4.33;97.31;93104.19;4939734;29;20586;-78
2023/11/28 04:18:11;;;;;;;1.27;0.40;;;;;;;4.31;98.42;93112.06;4955496;28;20282;-78
2023/11/28 04:20:36;;;;;;;0.30;0.30;;;;;;;4.35;98.53;93115.13;4958418;28;20624;-79
2023/11/28 04:23:02;;;;;;;0.40;0.40;;;;;;;4.41;98.10;93122.94;4939888;28;20232;-79
2023/11/28 04:25:27;;;;;;;0.47;0.40;;;;;;;4.30;98.35;93114.81;4935832;29;20220;-79
2023/11/28 04:27:53;;;;;;;0.40;0.40;;;;;;;4.01;99.20;93121.38;4960291;28;20280;-79
2023/11/28 04:30:18;;;;;;;0.40;0.40;;;;;;;4.17;98.91;93118.75;4941659;28;20197;-79
2023/11/28 04:32:43;;;;;;;0.70;0.70;;;;;;;4.20;98.29;93122.72;4970570;28;20213;-79
2023/11/28 04:35:09;;;;;;;0.83;0.60;;;;;;;4.05;99.73;93126.97;4954665;28;20203;-79
2023/11/28 04:37:35;;;;;;;0.80;0.73;;;;;;;4.12;99.87;93131.28;4970191;28;20181;-80
2023/11/28 04:40:00;;;;;;;0.97;0.50;;;;;;;4.17;99.48;93135.91;4970709;28;20238;-80
2023/11/28 04:42:27;;;;;;;0.83;0.83;;;;;;;4.31;99.19;93132.63;4957371;28;20213;-78
2023/11/28 04:44:53;;;;;;;0.93;0.90;;;;;;;4.20;99.63;93141.50;4978197;28;20189;-79
2023/11/28 04:47:19;;;;;;;1.07;0.97;;;;;;;4.24;99.39;93142.78;4937881;28;20318;-79
2023/11/28 04:49:44;;;;;;;1.20;1.10;;;;;;;4.08;100.00;93149.75;4941814;28;20760;-77
2023/11/28 04:52:09;;;;;;;1.20;1.10;;;;;;;4.22;100.00;93157.53;4954797;28;20241;-79
2023/11/28 04:54:35;;;;;;;1.27;1.10;;;;;;;4.15;100.00;93159.22;4941282;29;20189;-78
2023/11/28 04:57:00;;;;;;;5.07;2.70;;;;;;;3.68;100.00;93154.84;4938086;29;20174;-78
2023/11/28 04:59:26;;;;;;;4.80;3.60;;;;;;;3.79;100.00;93147.75;4953811;28;20196;-78
2023/11/28 05:01:52;;;;;;;1.83;1.70;;;;;;;3.79;100.00;93163.16;4974046;28;20189;-79
2023/11/28 05:04:17;;;;;;;2.90;2.60;;;;;;;3.74;99.94;93157.72;4954632;28;20181;-78
2023/11/28 05:06:43;;;;;;;2.83;2.63;;;;;;;3.66;100.00;93173.94;4953728;28;20705;-79
2023/11/28 05:09:08;;;;;;;3.20;2.90;;;;;;;3.65;100.00;93169.78;4954147;28;20189;-78
2023/11/28 05:11:34;;;;;;;2.87;2.67;;;;;;;3.53;100.00;93174.44;4946410;28;20730;-78
2023/11/28 05:13:59;;;;;;;3.10;2.80;;;;;;;3.75;100.00;93174.72;4939071;28;20755;-79
2023/11/28 05:16:25;;;;;;;3.00;2.50;;;;;;;3.43;100.00;93181.50;4953905;28;20716;-78
2023/11/28 05:18:50;;;;;;;5.10;2.70;;;;;;;3.59;99.82;93178.94;4953844;28;20663;-79
2023/11/28 05:21:17;;;;;;;5.03;2.90;;;;;;;3.61;99.97;93189.03;4939926;28;20200;-78
2023/11/28 05:23:42;;;;;;;3.10;2.80;;;;;;;3.53;100.00;93189.84;4941558;28;20205;-79
2023/11/28 05:26:07;;;;;;;3.33;3.03;;;;;;;3.42;100.00;93197.88;4939561;28;20280;-77
2023/11/28 05:28:33;;;;;;;3.03;2.73;;;;;;;3.45;100.00;93191.63;4953977;28;20198;-78
2023/11/28 05:30:59;;;;;;;3.87;3.47;;;;;;;3.49;100.00;93193.69;4970099;28;20258;-78
2023/11/28 05:33:24;;;;;;;3.43;3.13;;;;;;;3.44;100.00;93201.06;4953997;28;20209;-79
2023/11/28 05:35:49;;;;;;;3.43;3.13;;;;;;;3.49;100.00;93209.09;4955817;28;20220;-78
2023/11/28 05:38:15;;;;;;;3.37;3.07;;;;;;;3.42;99.70;93208.13;4953384;28;20201;-79
2023/11/28 05:40:41;;;;;;;3.50;3.10;;;;;;;3.57;99.12;93203.16;4936729;29;20197;-78
2023/11/28 05:43:06;;;;;;;3.80;3.30;;;;;;;3.34;99.50;93223.53;4953669;28;20313;-78
2023/11/28 05:45:31;;;;;;;3.40;3.10;;;;;;;3.35;99.29;93225.94;4941866;28;20263;-78
2023/11/28 05:47:57;;;;;;;3.50;3.20;;;;;;;3.43;98.93;93225.13;4938031;28;20666;-78
2023/11/28 05:50:25;;;;;;;3.37;3.07;;;;;;;3.10;99.48;93232.03;4969177;28;20222;-78
2023/11/28 05:52:52;;;;;;;3.20;2.90;;;;;;;2.94;99.41;93232.00;4952519;28;20221;-78
2023/11/28 05:55:20;;;;;;;4.10;3.20;;;;;;;3.11;99.38;93252.38;4940201;28;20731;-77
2023/11/28 05:57:45;;;;;;;3.03;2.40;;;;;;;3.09;99.11;93248.34;4937237;29;20561;-78
2023/11/28 06:00:12;;;;;;;3.27;2.97;;;;;;;3.06;98.76;93249.47;4936844;28;20204;-79
2023/11/28 06:02:38;;;;;;;4.40;2.77;;;;;;;2.92;99.41;93268.06;4966685;28;20288;-76
2023/11/28 06:05:04;;;;;;;3.07;2.77;;;;;;;2.91;99.55;93273.31;4969918;28;20320;-77
2023/11/28 06:07:29;;;;;;;2.70;2.50;;;;;;;2.93;98.56;93276.56;4953909;28;20213;-80
2023/11/28 06:09:55;;;;;;;2.90;2.60;;;;;;;2.91;98.63;93276.69;4953136;28;20189;-77
2023/11/28 06:12:20;;;;;;;2.73;2.10;;;;;;;2.87;98.25;93269.47;4953995;28;20213;-78
2023/11/28 06:14:46;;;;;;;2.27;2.07;;;;;;;2.99;97.72;93283.59;4936323;28;20185;-78
2023/11/28 06:17:12;;;;;;;2.10;1.90;;;;;;;2.77;98.29;93285.78;4955834;28;20204;-77
2023/11/28 06:19:37;;;;;;;1.90;1.67;;;;;;;2.67;97.74;93303.06;4968867;28;20183;-79
2023/11/28 06:22:03;;;;;;;2.77;2.03;;;;;;;2.72;97.37;93300.81;4939821;28;20208;-78
2023/11/28 06:24:29;;;;;;;1.77;1.63;;;;;;;2.54;98.41;93300.13;4952839;28;20244;-79
2023/11/28 06:26:54;;;;;;;1.83;1.67;;;;;;;2.70;97.80;93313.00;4918057;29;20214;-79
2023/11/28 06:29:19;;;;;;;1.53;1.43;;;;;;;2.65;97.16;93314.41;4970504;28;20212;-79
2023/11/28 06:31:45;;;;;;;1.57;1.47;;;;;;;2.60;98.14;93324.31;4952649;28;20196;-79
2023/11/28 06:34:10;;;;;;;1.60;1.43;;;;;;;2.43;98.35;93334.50;4936972;28;20188;-79
2023/11/28 06:36:36;;;;;;;1.40;1.30;;;;;;;2.19;98.57;93336.91;4954102;28;20181;-80
2023/11/28 06:39:02;;;;;;;1.20;1.10;;;;;;;2.18;97.86;93341.22;4938804;28;20212;-79
2023/11/28 06:41:27;;;;;;;2.93;2.67;;;;;;;2.24;97.52;93355.19;4971602;28;20682;-79
2023/11/28 06:43:53;;;;;;;25.57;16.03;;;;;;;2.39;95.98;93363.94;4943847;29;20209;-79
2023/11/28 06:46:19;;;;;;;12.10;9.40;;;;;;;2.48;95.49;93373.28;4935249;28;20209;-79
2023/11/28 06:48:45;;;;;;;21.07;11.80;;;;;;;2.18;96.60;93381.41;4938598;29;20618;-80
2023/11/28 06:51:11;;;;;;;15.77;10.70;;;;;;;2.12;96.19;93384.53;4971798;28;20189;-79
2023/11/28 06:53:36;;;;;;;10.33;6.50;;;;;;;1.88;96.69;93393.66;4952572;28;20227;-79
2023/11/28 06:56:03;;;;;;;13.63;9.83;;;;;;;1.93;96.11;93404.25;4952113;28;20268;-78
2023/11/28 06:58:28;;;;;;;38.37;23.00;;;;;;;1.67;96.43;93405.94;4959475;28;20180;-78
2023/11/28 07:00:54;;;;;;;42.53;22.20;;;;;;;1.55;97.32;93419.91;4941565;29;20743;-79
2023/11/28 07:03:20;;;;;;;32.20;18.83;;;;;;;1.68;96.79;93433.16;4924798;29;20205;-79
2023/11/28 07:05:45;;;;;;;24.80;14.10;;;;;;;1.60;96.51;93439.00;4935911;28;20185;-78
2023/11/28 07:08:11;;;;;;;11.97;8.40;;;;;;;1.45;96.97;93434.53;4951573;28;20207;-80
2023/11/28 07:10:36;;;;;;;29.43;17.87;;;;;;;1.36;96.77;93452.34;4942297;28;20581;-79
2023/11/28 07:13:01;;;;;;;16.13;10.60;;;;;;;1.28;97.01;93467.59;4953492;28;20215;-79
2023/11/28 07:15:27;;;;;;;16.87;10.27;;;;;;;1.28;96.63;93465.03;4952122;28;20224;-79
2023/11/28 07:17:52;;;;;;;19.40;12.00;;;;;;;1.39;96.18;93472.50;4934586;28;20196;-80
2023/11/28 07:20:18;;;;;;;21.57;12.57;;;;;;;1.25;96.46;93500.31;4924808;28;20317;-79
2023/11/28 07:22:43;;;;;;;24.53;14.93;;;;;;;1.30;96.61;93505.78;4968542;28;20208;-80
2023/11/28 07:25:09;;;;;;;9.70;6.60;;;;;;;1.17;97.25;93513.78;4923399;28;20665;-79
2023/11/28 07:27:35;;;;;;;5.00;2.70;;;;;;;1.23;97.47;93520.09;4967363;28;20212;-79
2023/11/28 07:30:01;;;;;;;13.30;6.77;;;;;;;1.23;97.13;93530.31;4950370;28;20655;-80
2023/11/28 07:32:27;;;;;;;10.30;6.07;;;;;;;1.36;96.65;93521.38;4953652;28;20219;-79
2023/11/28 07:34:52;;;;;;;4.10;3.67;;;;;;;1.13;96.74;93538.00;4951603;28;20212;-80
2023/11/28 07:37:17;;;;;;;8.33;5.13;;;;;;;1.44;95.36;93530.09;4950832;28;20196;-79
2023/11/28 07:39:43;;;;;;;9.03;6.30;;;;;;;1.31;95.47;93545.75;4950776;28;20189;-79
2023/11/28 07:42:08;;;;;;;9.67;6.13;;;;;;;1.28;95.96;93556.28;4938981;28;20256;-79
2023/11/28 07:44:34;;;;;;;3.67;2.70;;;;;;;1.17;96.27;93557.25;4935718;29;20188;-79
2023/11/28 07:47:00;;;;;;;2.33;2.13;;;;;;;1.11;96.56;93568.84;4949148;28;20273;-79
2023/11/28 07:49:25;;;;;;;3.87;3.33;;;;;;;1.01;96.70;93564.69;4952215;28;20181;-80
2023/11/28 07:51:50;;;;;;;7.40;5.13;;;;;;;1.06;96.34;93578.69;4937373;29;20204;-80
2023/11/28 07:54:16;;;;;;;13.63;8.43;;;;;;;0.99;96.31;93575.06;4960751;28;20224;-79
2023/11/28 07:56:41;;;;;;;9.80;6.13;;;;;;;0.90;96.55;93591.22;4933641;29;20193;-79
2023/11/28 07:59:07;;;;;;;4.40;3.23;;;;;;;1.10;96.46;93604.78;4964417;28;20208;-78
2023/11/28 08:01:32;;;;;;;3.73;3.43;;;;;;;1.02;96.05;93602.09;4936601;28;20719;-77
2023/11/28 08:03:57;;;;;;;12.33;11.17;;;;;;;1.14;95.61;93616.31;4954363;28;20205;-78
2023/11/28 08:06:25;;;;;;;14.77;13.53;;;;;;;0.94;96.82;93617.31;4951377;28;20209;-80
2023/11/28 08:08:50;;;;;;;6.70;6.00;;;;;;;1.05;96.47;93617.16;4952305;28;20194;-78
2023/11/28 08:11:16;;;;;;;2.80;2.50;;;;;;;1.08;96.27;93622.00;4939288;28;20733;-79
2023/11/28 08:13:41;;;;;;;4.03;3.70;;;;;;;0.87;95.91;93634.91;4956916;28;20352;-80
2023/11/28 08:16:07;;;;;;;2.13;1.90;;;;;;;0.96;96.59;93639.22;4938080;28;20290;-78
2023/11/28 08:18:32;;;;;;;2.63;2.40;;;;;;;1.10;96.30;93648.22;4964114;28;20658;-78
2023/11/28 08:21:01;;;;;;;2.53;2.33;;;;;;;0.94;97.48;93653.88;4962101;28;20310;-78
2023/11/28 08:23:26;;;;;;;2.47;2.27;;;;;;;0.80;97.50;93652.56;4967509;28;20574;-81
2023/11/28 08:25:51;;;;;;;1.50;1.40;;;;;;;0.85;96.81;93659.81;4934425;29;20212;-80
2023/11/28 08:28:17;;;;;;;1.83;1.73;;;;;;;0.79;96.86;93658.59;4974753;28;20208;-79
2023/11/28 08:30:42;;;;;;;1.67;1.57;;;;;;;1.07;95.57;93677.44;4972419;28;20189;-80
2023/11/28 08:33:07;;;;;;;1.50;1.40;;;;;;;0.95;96.63;93683.63;4955346;28;20686;-78
2023/11/28 08:35:33;;;;;;;1.50;1.40;;;;;;;1.03;96.03;93681.19;4945911;28;20662;-79
2023/11/28 08:37:58;;;;;;;2.00;1.80;;;;;;;0.96;96.16;93684.41;4941020;28;20242;-81
2023/11/28 08:40:24;;;;;;;2.33;2.13;;;;;;;1.06;96.39;93696.28;4972695;28;20682;-80
2023/11/28 08:42:55;;;;;;;2.00;1.83;;;;;;;1.18;95.92;93699.50;4940671;29;20236;-80
2023/11/28 08:45:21;;;;;;;1.30;1.30;;;;;;;1.12;96.08;93705.13;4959365;28;20193;-80
2023/11/28 08:47:46;;;;;;;2.40;1.80;;;;;;;0.89;97.15;93708.91;4956324;28;20264;-80
2023/11/28 08:50:12;;;;;;;1.90;1.70;;;;;;;0.97;97.21;93716.69;4956313;28;20211;-80
2023/11/28 08:52:37;;;;;;;2.17;1.90;;;;;;;0.97;96.49;93721.81;4957092;28;20221;-79
2023/11/28 08:55:03;;;;;;;1.97;1.73;;;;;;;1.06;96.67;93732.06;4937284;28;20200;-80
2023/11/28 08:57:33;;;;;;;3.50;2.50;;;;;;;0.89;96.76;93734.47;4957543;28;20181;-80
2023/11/28 09:00:08;;;;;;;1.90;1.50;;;;;;;0.85;96.05;93750.06;4942361;28;20228;-80
2023/11/28 09:02:34;;;;;;;3.67;3.37;;;;;;;0.95;97.11;93759.47;4971060;28;20690;-79
2023/11/28 09:04:59;;;;;;;3.20;3.00;;;;;;;0.76;96.62;93771.28;4938447;28;20188;-78
2023/11/28 09:07:24;;;;;;;2.20;2.00;;;;;;;0.79;97.34;93775.31;4937537;28;20240;-78
2023/11/28 09:09:50;;;;;;;4.87;3.60;;;;;;;0.83;97.05;93774.94;4962818;28;20200;-78
2023/11/28 09:12:16;;;;;;;4.43;2.50;;;;;;;0.88;96.16;93782.19;4954666;28;20653;-79
2023/11/28 09:14:42;;;;;;;3.53;3.23;;;;;;;0.78;96.89;93782.19;4931274;29;20208;-79
2023/11/28 09:17:07;;;;;;;2.63;2.20;;;;;;;0.73;96.67;93781.78;4955322;28;20220;-79
2023/11/28 09:19:33;;;;;;;4.97;3.83;;;;;;;0.98;95.77;93795.00;4941291;29;20185;-79
2023/11/28 09:22:01;;;;;;;2.23;1.83;;;;;;;0.73;95.89;93801.41;4971078;28;20213;-78
2023/11/28 09:24:27;;;;;;;2.50;2.30;;;;;;;0.96;95.39;93800.25;4955178;28;20196;-78
2023/11/28 09:26:52;;;;;;;1.80;1.70;;;;;;;0.48;96.38;93807.78;4920725;29;20216;-79
2023/11/28 09:29:22;;;;;;;1.70;1.60;;;;;;;0.75;96.26;93809.75;4956335;28;20280;-78
2023/11/28 09:31:47;;;;;;;2.10;1.90;;;;;;;0.63;97.13;93811.63;4953839;28;20268;-79
2023/11/28 09:34:12;;;;;;;21.17;15.67;;;;;;;0.61;96.60;93813.47;4938606;28;20663;-78
2023/11/28 09:36:38;;;;;;;15.13;13.53;;;;;;;0.62;96.49;93822.78;4955248;28;20189;-79
2023/11/28 09:39:05;;;;;;;3.70;3.40;;;;;;;0.56;96.11;93830.94;4955909;28;20193;-79
2023/11/28 09:41:32;;;;;;;7.80;7.00;;;;;;;0.73;95.83;93838.00;4971846;28;20284;-80
2023/11/28 09:43:58;;;;;;;4.43;4.03;;;;;;;0.75;94.92;93850.63;4937931;28;20234;-79
2023/11/28 09:46:24;;;;;;;2.40;2.20;;;;;;;0.84;94.41;93839.63;4969394;28;20208;-79
2023/11/28 09:48:53;;;;;;;2.70;1.97;;;;;;;0.78;95.11;93851.19;4921371;29;20288;-77
2023/11/28 09:51:19;;;;;;;2.73;1.73;;;;;;;0.79;94.51;93850.22;4957482;28;20185;-78
2023/11/28 09:53:46;;;;;;;2.30;2.07;;;;;;;0.73;94.75;93862.75;4937599;29;20227;-78
2023/11/28 09:56:14;;;;;;;2.10;2.00;;;;;;;0.82;94.40;93869.63;4968558;28;20272;-76
2023/11/28 09:58:39;;;;;;;3.10;2.37;;;;;;;0.92;94.56;93870.47;4935766;28;20213;-78
2023/11/28 10:01:06;;;;;;;2.73;2.53;;;;;;;0.90;93.87;93881.75;4941683;28;20684;-79
2023/11/28 10:03:35;;;;;;;2.17;1.97;;;;;;;0.82;94.22;93888.31;4971572;28;20227;-79
2023/11/28 10:06:00;;;;;;;3.37;3.17;;;;;;;0.80;94.40;93890.22;4967605;28;20201;-76
2023/11/28 10:08:26;;;;;;;2.47;2.27;;;;;;;0.66;95.34;93889.72;4951152;28;20200;-78
2023/11/28 10:10:53;;;;;;;2.83;2.57;;;;;;;1.01;93.83;93889.31;4942563;29;20185;-78
2023/11/28 10:13:22;;;;;;;2.40;2.07;;;;;;;0.55;94.80;93895.75;4938360;28;20237;-78
2023/11/28 10:15:54;;;;;;;3.07;2.87;;;;;;;0.80;94.04;93897.88;4921454;29;20196;-78
2023/11/28 10:18:20;;;;;;;2.80;2.60;;;;;;;0.76;94.40;93901.59;4952582;29;20193;-77
2023/11/28 10:20:45;;;;;;;3.27;3.00;;;;;;;0.59;94.92;93902.19;4936311;29;20193;-78
2023/11/28 10:23:15;;;;;;;5.10;3.97;;;;;;;0.84;94.85;93906.06;4952686;28;20817;-78
2023/11/28 10:25:40;;;;;;;3.53;3.23;;;;;;;0.72;94.33;93904.56;4942027;28;20725;-78
2023/11/28 10:28:08;;;;;;;4.00;3.60;;;;;;;0.67;94.53;93925.38;4936508;28;20185;-78
2023/11/28 10:30:36;;;;;;;3.93;3.63;;;;;;;0.56;94.88;93917.78;4935372;28;20253;-78
2023/11/28 10:33:02;;;;;;;3.03;2.83;;;;;;;0.63;95.04;93924.03;4955585;28;20228;-78
2023/11/28 10:35:44;;;;;;;3.10;2.90;;;;;;;0.54;95.03;93923.03;4971777;28;20185;-79
2023/11/28 10:38:14;;;;;;;2.80;2.60;;;;;;;0.53;95.63;93941.00;4952169;28;20228;-78
2023/11/28 10:40:42;;;;;;;2.70;2.50;;;;;;;0.70;94.29;93935.31;4968492;28;20204;-78
2023/11/28 10:43:08;;;;;;;3.00;2.80;;;;;;;0.85;93.32;93940.91;4935357;28;20850;-78
2023/11/28 10:45:34;;;;;;;3.13;2.93;;;;;;;0.67;94.40;93945.00;4936571;29;20192;-78
2023/11/28 10:47:59;;;;;;;4.67;4.27;;;;;;;0.69;94.10;93948.22;4953570;28;20229;-79
2023/11/28 10:50:37;;;;;;;5.60;5.10;;;;;;;0.89;93.99;93951.72;4957768;28;20193;-82
2023/11/28 10:53:04;;;;;;;4.63;4.23;;;;;;;0.62;94.26;93947.09;4967778;28;20219;-79
2023/11/28 10:55:38;;;;;;;3.70;3.40;;;;;;;0.48;95.25;93958.47;4968361;28;20534;-78
2023/11/28 10:58:15;;;;;;;5.23;4.80;;;;;;;0.65;94.35;93963.00;4952033;28;20193;-79
2023/11/28 11:00:42;;;;;;;4.97;4.50;;;;;;;0.56;94.45;93971.44;4949583;28;20642;-80
2023/11/28 11:03:08;;;;;;;4.47;4.07;;;;;;;0.67;94.27;93971.34;4951801;28;20584;-80
2023/11/28 11:05:34;;;;;;;4.87;4.37;;;;;;;0.78;92.94;93965.34;4953208;28;20277;-79
2023/11/28 11:08:08;;;;;;;5.83;5.33;;;;;;;0.73;93.38;93978.53;4969319;28;20219;-81
2023/11/28 11:10:33;;;;;;;5.33;4.53;;;;;;;0.64;93.36;93981.84;4957153;28;20189;-80
2023/11/28 11:13:08;;;;;;;4.70;4.00;;;;;;;0.65;93.71;93988.56;4968215;28;20583;-79
2023/11/28 11:15:58;;;;;;;4.10;3.80;;;;;;;0.51;93.47;93996.53;4954087;28;20685;-79
2023/11/28 11:18:42;;;;;;;4.60;4.20;;;;;;;0.53;93.59;93999.75;4954518;28;20193;-79
2023/11/28 11:21:17;;;;;;;5.30;4.90;;;;;;;0.61;92.83;94002.50;4936564;28;20893;-79
2023/11/28 11:23:47;;;;;;;6.63;6.03;;;;;;;0.88;91.92;94003.72;4935017;29;20237;-79
2023/11/28 11:26:13;;;;;;;9.07;7.57;;;;;;;0.71;92.27;94018.72;4940496;28;20585;-77
2023/11/28 11:28:38;;;;;;;5.23;4.73;;;;;;;0.71;91.75;94013.63;4955389;28;20361;-78
2023/11/28 11:31:12;;;;;;;4.10;3.80;;;;;;;0.91;91.55;94023.94;4968540;28;20188;-77
2023/11/28 11:33:37;;;;;;;6.13;4.33;;;;;;;0.61;91.96;94028.06;4954048;28;20295;-78